createdAt,value
2022-08-10T00:01:58.721Z,1.93
2022-08-10T00:04:25.932Z,3.00
2022-08-10T00:06:55.101Z,2.70
2022-08-10T00:09:22.883Z,2.27
2022-08-10T00:11:50.112Z,2.47
2022-08-10T00:14:17.547Z,2.30
2022-08-10T00:16:44.683Z,2.60
2022-08-10T00:19:11.921Z,2.03
2022-08-10T00:21:39.665Z,2.20
2022-08-10T00:24:08.591Z,2.10
2022-08-10T00:27:57.914Z,2.37
2022-08-10T00:29:22.950Z,2.20
2022-08-10T00:31:57.838Z,2.03
2022-08-10T00:34:26.702Z,2.33
2022-08-10T00:36:53.808Z,3.03
2022-08-10T00:39:23.330Z,2.23
2022-08-10T00:42:06.822Z,2.80
2022-08-10T00:44:35.794Z,2.63
2022-08-10T00:47:02.933Z,2.20
2022-08-10T00:49:30.120Z,2.17
2022-08-10T00:51:57.334Z,2.47
2022-08-10T00:54:25.923Z,2.00
2022-08-10T00:57:16.970Z,2.60
2022-08-10T00:59:58.710Z,1.97
2022-08-10T01:02:27.716Z,2.23
2022-08-10T01:05:00.852Z,2.33
2022-08-10T01:07:34.460Z,2.57
2022-08-10T01:10:08.684Z,2.93
2022-08-10T01:12:41.469Z,2.37
2022-08-10T01:15:12.338Z,2.57
2022-08-10T01:17:50.439Z,2.60
2022-08-10T01:20:30.269Z,2.60
2022-08-10T01:23:13.150Z,2.10
2022-08-10T01:26:10.375Z,2.33
2022-08-10T01:28:46.373Z,2.50
2022-08-10T01:31:16.776Z,2.60
2022-08-10T01:33:58.863Z,2.37
2022-08-10T01:36:31.855Z,2.63
2022-08-10T01:39:00.774Z,2.30
2022-08-10T01:41:31.761Z,2.27
2022-08-10T01:44:14.923Z,2.80
2022-08-10T01:46:46.212Z,2.47
2022-08-10T01:49:14.597Z,2.40
2022-08-10T01:51:44.336Z,2.40
2022-08-10T01:54:13.371Z,2.37
2022-08-10T01:56:42.886Z,2.90
2022-08-10T01:59:12.473Z,2.40
2022-08-10T02:01:41.244Z,2.67
2022-08-10T02:04:11.192Z,2.80
2022-08-10T02:06:40.097Z,2.80
2022-08-10T02:09:08.603Z,2.33
2022-08-10T02:12:06.036Z,2.67
2022-08-10T02:14:24.253Z,2.60
2022-08-10T02:16:52.069Z,2.40
2022-08-10T02:19:22.153Z,2.40
2022-08-10T02:22:36.013Z,2.27
2022-08-10T02:24:37.861Z,2.67
2022-08-10T02:27:05.575Z,2.30
2022-08-10T02:29:33.049Z,2.40
2022-08-10T02:32:00.157Z,2.80
2022-08-10T02:34:29.378Z,3.20
2022-08-10T02:36:59.079Z,2.60
2022-08-10T02:39:26.597Z,2.30
2022-08-10T02:42:18.623Z,2.40
2022-08-10T02:45:13.737Z,2.60
2022-08-10T02:47:51.709Z,2.30
2022-08-10T02:50:23.930Z,2.60
2022-08-10T02:52:53.264Z,2.90
2022-08-10T02:55:31.738Z,3.23
2022-08-10T02:58:13.861Z,3.47
2022-08-10T03:00:46.885Z,2.70
2022-08-10T03:03:18.326Z,2.43
2022-08-10T03:05:48.342Z,2.93
2022-08-10T03:08:19.070Z,2.63
2022-08-10T03:10:46.929Z,2.83
2022-08-10T03:13:15.303Z,2.50
2022-08-10T03:15:42.663Z,3.47
2022-08-10T03:18:10.282Z,3.00
2022-08-10T03:20:40.238Z,2.73
2022-08-10T03:23:10.672Z,2.43
2022-08-10T03:25:38.080Z,2.93
2022-08-10T03:28:05.564Z,2.33
2022-08-10T03:30:34.264Z,2.90
2022-08-10T03:33:03.254Z,3.07
2022-08-10T03:35:30.541Z,2.77
2022-08-10T03:37:59.952Z,2.77
2022-08-10T03:40:32.244Z,2.97
2022-08-10T03:43:16.301Z,3.83
2022-08-10T03:45:54.472Z,3.00
2022-08-10T03:48:23.092Z,2.97
2022-08-10T03:50:52.617Z,2.53
2022-08-10T03:53:25.142Z,3.57
2022-08-10T03:56:29.197Z,2.90
2022-08-10T03:58:56.935Z,3.13
2022-08-10T04:02:45.761Z,3.43
2022-08-10T04:04:13.857Z,3.60
2022-08-10T04:06:43.679Z,3.27
2022-08-10T04:09:10.795Z,3.27
2022-08-10T04:11:40.631Z,3.10
2022-08-10T04:14:07.920Z,3.47
2022-08-10T04:16:55.182Z,3.80
2022-08-10T04:19:23.274Z,3.20
2022-08-10T04:21:53.002Z,3.20
2022-08-10T04:24:26.980Z,3.50
2022-08-10T04:26:59.337Z,3.93
2022-08-10T04:29:26.503Z,4.10
2022-08-10T04:31:53.760Z,3.40
2022-08-10T04:34:21.481Z,4.00
2022-08-10T04:36:50.189Z,3.90
2022-08-10T04:39:17.836Z,4.30
2022-08-10T04:41:46.304Z,3.40
2022-08-10T04:44:16.255Z,3.53
2022-08-10T04:46:57.927Z,3.87
2022-08-10T04:49:56.197Z,3.30
2022-08-10T04:52:13.177Z,3.97
2022-08-10T04:54:40.344Z,3.93
2022-08-10T04:57:08.912Z,4.00
2022-08-10T04:59:37.459Z,3.73
2022-08-10T05:02:29.034Z,4.43
2022-08-10T05:04:51.753Z,4.00
2022-08-10T05:07:18.899Z,4.07
2022-08-10T05:10:03.823Z,4.20
2022-08-10T05:12:36.565Z,3.30
2022-08-10T05:15:07.095Z,4.20
2022-08-10T05:17:34.409Z,4.10
2022-08-10T05:20:06.065Z,4.60
2022-08-10T05:22:35.938Z,4.00
2022-08-10T05:25:04.224Z,4.03
2022-08-10T05:27:31.364Z,4.17
2022-08-10T05:30:01.254Z,3.70
2022-08-10T05:32:31.763Z,4.13
2022-08-10T05:34:58.975Z,4.37
2022-08-10T05:38:11.846Z,4.47
2022-08-10T05:40:14.164Z,4.23
2022-08-10T05:42:42.289Z,4.37
2022-08-10T05:45:16.450Z,4.03
2022-08-10T05:48:54.255Z,4.23
2022-08-10T05:50:32.201Z,4.40
2022-08-10T05:53:03.748Z,3.73
2022-08-10T05:55:46.504Z,4.20
2022-08-10T05:58:13.840Z,4.30
2022-08-10T06:00:46.018Z,4.53
2022-08-10T06:03:23.989Z,4.53
2022-08-10T06:05:52.563Z,3.93
2022-08-10T06:08:20.697Z,4.17
2022-08-10T06:12:23.761Z,4.07
2022-08-10T06:14:00.091Z,4.73
2022-08-10T06:16:25.105Z,4.40
2022-08-10T06:18:55.722Z,4.47
2022-08-10T06:21:23.603Z,3.97
2022-08-10T06:23:50.815Z,3.97
2022-08-10T06:26:21.105Z,4.13
2022-08-10T06:28:54.020Z,4.17
2022-08-10T06:31:48.009Z,4.40
2022-08-10T06:34:19.683Z,4.80
2022-08-10T06:36:47.500Z,4.50
2022-08-10T06:39:33.010Z,3.90
2022-08-10T06:42:15.995Z,4.90
2022-08-10T06:44:49.164Z,4.00
2022-08-10T06:47:22.972Z,4.10
2022-08-10T06:49:54.083Z,4.60
2022-08-10T06:52:28.186Z,4.23
2022-08-10T06:54:56.361Z,4.37
2022-08-10T06:57:25.569Z,4.83
2022-08-10T06:59:53.737Z,4.23
2022-08-10T07:02:26.350Z,4.70
2022-08-10T07:04:56.634Z,3.93
2022-08-10T07:07:25.487Z,4.03
2022-08-10T07:09:53.628Z,3.90
2022-08-10T07:12:21.696Z,4.43
2022-08-10T07:14:49.184Z,3.63
2022-08-10T07:17:18.897Z,3.50
2022-08-10T07:19:50.476Z,3.93
2022-08-10T07:23:22.666Z,3.20
2022-08-10T07:25:09.679Z,3.10
2022-08-10T07:27:39.218Z,3.57
2022-08-10T07:30:26.756Z,3.50
2022-08-10T07:32:53.962Z,3.90
2022-08-10T07:35:22.162Z,3.53
2022-08-10T07:37:52.106Z,4.00
2022-08-10T07:40:20.464Z,3.40
2022-08-10T07:42:48.680Z,3.83
2022-08-10T07:45:15.962Z,3.93
2022-08-10T07:47:53.502Z,6.17
2022-08-10T07:50:22.990Z,4.50
2022-08-10T07:52:52.703Z,4.88
2022-08-10T07:56:05.507Z,3.60
2022-08-10T07:58:09.206Z,3.30
2022-08-10T08:00:36.697Z,3.80
2022-08-10T08:03:04.263Z,4.10
2022-08-10T08:05:58.972Z,3.50
2022-08-10T08:08:20.797Z,3.15
2022-08-10T08:10:48.728Z,3.88
2022-08-10T08:13:17.250Z,4.85
2022-08-10T08:16:20.731Z,3.65
2022-08-10T08:18:32.722Z,3.50
2022-08-10T08:21:16.017Z,3.47
2022-08-10T08:24:06.052Z,3.85
2022-08-10T08:26:41.731Z,3.70
2022-08-10T08:29:13.348Z,4.47
2022-08-10T08:31:54.566Z,2.90
2022-08-10T08:34:28.467Z,3.20
2022-08-10T08:36:59.643Z,3.67
2022-08-10T08:39:28.472Z,3.50
2022-08-10T08:42:13.819Z,3.45
2022-08-10T08:44:47.933Z,2.97
2022-08-10T08:48:04.294Z,3.88
2022-08-10T08:50:20.431Z,3.08
2022-08-10T08:52:57.066Z,3.67
2022-08-10T08:56:03.748Z,3.35
2022-08-10T08:58:34.127Z,2.80
2022-08-10T09:01:03.962Z,3.45
2022-08-10T09:03:45.979Z,3.50
2022-08-10T09:06:23.482Z,3.53
2022-08-10T09:08:57.085Z,2.92
2022-08-10T09:11:31.161Z,3.10
2022-08-10T09:14:01.255Z,3.60
2022-08-10T09:16:30.528Z,3.17
2022-08-10T09:19:02.156Z,3.72
2022-08-10T09:21:33.957Z,3.60
2022-08-10T09:24:18.622Z,3.60
2022-08-10T09:26:50.226Z,3.53
2022-08-10T09:29:19.901Z,3.67
2022-08-10T09:32:55.037Z,3.60
2022-08-10T09:36:29.580Z,3.30
2022-08-10T09:37:39.941Z,3.92
2022-08-10T09:41:00.688Z,3.20
2022-08-10T09:43:26.078Z,3.10
2022-08-10T09:45:57.617Z,3.00
2022-08-10T09:48:27.434Z,2.85
2022-08-10T09:53:50.826Z,3.55
2022-08-10T09:56:29.074Z,3.75
2022-08-10T09:59:26.901Z,3.05
2022-08-10T10:02:02.728Z,3.05
2022-08-10T10:04:37.838Z,3.03
2022-08-10T10:07:06.273Z,3.40
2022-08-10T10:09:37.385Z,2.97
2022-08-10T10:12:12.473Z,3.58
2022-08-10T10:14:47.159Z,3.15
2022-08-10T10:17:17.983Z,2.88
2022-08-10T10:19:53.349Z,3.20
2022-08-10T10:22:27.307Z,3.45
2022-08-10T10:24:58.398Z,3.22
2022-08-10T10:27:32.229Z,3.05
2022-08-10T10:30:03.634Z,3.70
2022-08-10T10:32:39.918Z,3.10
2022-08-10T10:35:12.379Z,3.08
2022-08-10T10:38:01.806Z,2.88
2022-08-10T10:40:29.675Z,2.70
2022-08-10T10:43:02.023Z,3.60
2022-08-10T10:45:33.735Z,3.58
2022-08-10T10:48:07.843Z,3.22
2022-08-10T10:50:39.370Z,3.25
2022-08-10T10:53:10.458Z,3.40
2022-08-10T10:56:13.845Z,2.83
2022-08-10T10:58:37.290Z,3.30
2022-08-10T11:01:08.926Z,2.90
2022-08-10T11:03:54.024Z,2.60
2022-08-10T11:06:39.246Z,3.00
2022-08-10T11:09:12.546Z,2.88
2022-08-10T11:12:02.855Z,2.50
2022-08-10T11:14:36.780Z,2.70
2022-08-10T11:17:11.860Z,3.25
2022-08-10T11:20:02.410Z,2.97
2022-08-10T11:22:36.465Z,2.92
2022-08-10T11:25:08.626Z,3.03
2022-08-10T11:27:39.745Z,3.22
2022-08-10T11:30:08.032Z,3.13
2022-08-10T11:32:43.542Z,3.22
2022-08-10T11:35:18.248Z,3.47
2022-08-10T11:38:30.926Z,3.30
2022-08-10T11:40:39.914Z,3.03
2022-08-10T11:43:10.699Z,3.30
2022-08-10T11:45:52.418Z,2.95
2022-08-10T11:48:52.833Z,2.97
2022-08-10T11:51:17.801Z,3.10
2022-08-10T11:53:48.438Z,2.40
2022-08-10T11:56:21.166Z,3.47
2022-08-10T11:58:48.567Z,2.80
2022-08-10T12:01:18.049Z,3.33
2022-08-10T12:03:47.170Z,3.28
2022-08-10T12:06:28.797Z,3.42
2022-08-10T12:10:09.835Z,2.90
2022-08-10T12:11:52.152Z,3.50
2022-08-10T12:14:22.214Z,3.25
2022-08-10T12:16:52.028Z,3.57
2022-08-10T12:19:24.548Z,3.20
2022-08-10T12:21:56.726Z,3.70
2022-08-10T12:24:26.503Z,3.27
2022-08-10T12:26:56.056Z,2.90
2022-08-10T12:29:26.136Z,3.10
2022-08-10T12:31:58.379Z,3.30
2022-08-10T12:34:30.911Z,3.47
2022-08-10T12:37:01.320Z,3.03
2022-08-10T12:39:30.487Z,3.70
2022-08-10T12:42:00.479Z,3.10
2022-08-10T12:44:42.424Z,3.40
2022-08-10T12:47:15.103Z,3.03
2022-08-10T12:50:30.806Z,3.90
2022-08-10T12:52:38.348Z,3.20
2022-08-10T12:55:06.157Z,4.30
2022-08-10T12:57:35.589Z,3.30
2022-08-10T13:00:03.237Z,3.37
2022-08-10T13:02:31.942Z,3.33
2022-08-10T13:05:02.954Z,3.20
2022-08-10T13:08:27.308Z,3.90
2022-08-10T13:10:20.717Z,3.60
2022-08-10T13:12:49.607Z,3.37
2022-08-10T13:15:25.425Z,4.17
2022-08-10T13:18:18.665Z,3.10
2022-08-10T13:20:51.551Z,3.47
2022-08-10T13:23:22.972Z,4.00
2022-08-10T13:25:51.166Z,3.53
2022-08-10T13:28:37.148Z,3.50
2022-08-10T13:31:08.868Z,3.60
2022-08-10T13:34:40.999Z,4.07
2022-08-10T13:36:31.142Z,3.60
2022-08-10T13:38:58.794Z,3.30
2022-08-10T13:41:28.058Z,3.73
2022-08-10T13:43:56.670Z,3.90
2022-08-10T13:46:23.850Z,3.20
2022-08-10T13:48:51.568Z,3.97
2022-08-10T13:51:21.137Z,3.20
2022-08-10T13:54:11.089Z,3.53
2022-08-10T13:56:38.585Z,2.80
2022-08-10T13:59:09.878Z,3.73
2022-08-10T14:01:38.394Z,4.00
2022-08-10T14:04:06.277Z,3.70
2022-08-10T14:06:34.162Z,3.80
2022-08-10T14:09:02.600Z,3.83
2022-08-10T14:11:31.387Z,3.67
2022-08-10T14:13:59.309Z,3.30
2022-08-10T14:16:27.270Z,2.90
2022-08-10T14:18:55.609Z,3.37
2022-08-10T14:21:22.833Z,3.07
2022-08-10T14:23:52.720Z,3.93
2022-08-10T14:26:22.206Z,3.53
2022-08-10T14:28:53.159Z,3.00
2022-08-10T14:31:22.234Z,4.30
2022-08-10T14:33:51.186Z,3.50
2022-08-10T14:36:24.303Z,3.17
2022-08-10T14:38:53.103Z,3.40
2022-08-10T14:42:02.544Z,3.40
2022-08-10T14:44:17.721Z,3.50
2022-08-10T14:46:46.437Z,3.33
2022-08-10T14:49:25.375Z,3.50
2022-08-10T14:51:58.396Z,3.50
2022-08-10T14:54:29.477Z,3.20
2022-08-10T14:57:02.383Z,3.13
2022-08-10T15:00:20.978Z,3.43
2022-08-10T15:02:40.391Z,2.63
2022-08-10T15:05:16.960Z,2.60
2022-08-10T15:07:46.227Z,3.50
2022-08-10T15:10:18.489Z,2.93
2022-08-10T15:12:45.735Z,3.47
2022-08-10T15:15:16.556Z,3.20
2022-08-10T15:17:47.664Z,3.27
2022-08-10T15:20:16.035Z,3.00
2022-08-10T15:22:50.411Z,2.80
2022-08-10T15:25:24.959Z,3.10
2022-08-10T15:27:56.137Z,3.07
2022-08-10T15:30:30.129Z,3.17
2022-08-10T15:32:58.724Z,2.50
2022-08-10T15:35:27.681Z,3.30
2022-08-10T15:38:07.580Z,2.70
2022-08-10T15:40:51.220Z,2.53
2022-08-10T15:43:25.407Z,2.90
2022-08-10T15:46:02.401Z,3.20
2022-08-10T15:48:30.928Z,2.97
2022-08-10T15:50:59.822Z,3.30
2022-08-10T15:53:46.861Z,2.97
2022-08-10T15:56:27.873Z,2.60
2022-08-10T15:58:58.535Z,2.97
2022-08-10T16:02:14.811Z,2.93
2022-08-10T16:04:32.243Z,2.80
2022-08-10T16:07:01.050Z,2.33
2022-08-10T16:10:24.031Z,3.07
2022-08-10T16:12:29.469Z,2.63
2022-08-10T16:14:57.914Z,3.00
2022-08-10T16:17:27.289Z,2.93
2022-08-10T16:19:56.094Z,2.50
2022-08-10T16:22:36.146Z,2.53
2022-08-10T16:25:10.785Z,3.07
2022-08-10T16:27:38.280Z,2.47
2022-08-10T16:30:06.140Z,2.57
2022-08-10T16:32:36.274Z,2.70
2022-08-10T16:35:08.802Z,2.30
2022-08-10T16:37:57.778Z,2.30
2022-08-10T16:40:25.625Z,3.00
2022-08-10T16:42:53.903Z,2.47
2022-08-10T16:45:22.918Z,2.60
2022-08-10T16:47:52.541Z,3.03
2022-08-10T16:50:23.336Z,2.60
2022-08-10T16:52:51.451Z,2.93
2022-08-10T16:55:24.450Z,2.40
2022-08-10T16:58:08.356Z,2.50
2022-08-10T17:00:35.886Z,2.77
2022-08-10T17:04:04.496Z,2.63
2022-08-10T17:06:09.654Z,2.53
2022-08-10T17:08:40.021Z,3.00
2022-08-10T17:11:16.015Z,2.40
2022-08-10T17:13:43.298Z,2.50
2022-08-10T17:16:11.409Z,2.27
2022-08-10T17:18:41.427Z,2.43
2022-08-10T17:21:12.636Z,2.50
2022-08-10T17:23:41.467Z,2.60
2022-08-10T17:26:09.929Z,2.23
2022-08-10T17:28:42.310Z,2.37
2022-08-10T17:31:42.894Z,2.40
2022-08-10T17:34:03.938Z,2.60
2022-08-10T17:36:34.009Z,2.70
2022-08-10T17:39:02.444Z,2.50
2022-08-10T17:41:30.397Z,2.30
2022-08-10T17:44:02.848Z,2.60
2022-08-10T17:46:32.469Z,2.40
2022-08-10T17:48:59.975Z,2.43
2022-08-10T17:51:31.023Z,2.80
2022-08-10T17:53:58.956Z,2.27
2022-08-10T17:56:26.263Z,2.60
2022-08-10T17:58:55.685Z,2.50
2022-08-10T18:01:38.242Z,2.93
2022-08-10T18:04:08.845Z,2.80
2022-08-10T18:06:37.856Z,2.50
2022-08-10T18:09:09.006Z,2.50
2022-08-10T18:11:41.058Z,2.30
2022-08-10T18:14:08.770Z,2.67
2022-08-10T18:16:36.214Z,2.00
2022-08-10T18:19:12.760Z,2.53
2022-08-10T18:21:42.475Z,2.77
2022-08-10T18:24:15.751Z,2.80
2022-08-10T18:26:44.275Z,3.07
2022-08-10T18:29:13.286Z,2.80
2022-08-10T18:31:47.225Z,2.47
2022-08-10T18:34:17.730Z,2.47
2022-08-10T18:36:47.538Z,2.20
2022-08-10T18:39:15.494Z,2.83
2022-08-10T18:42:00.407Z,2.60
2022-08-10T18:44:34.265Z,2.90
2022-08-10T18:47:02.436Z,2.87
2022-08-10T18:49:30.975Z,2.43
2022-08-10T18:52:02.103Z,2.83
2022-08-10T18:54:39.612Z,2.73
2022-08-10T18:57:16.539Z,2.50
2022-08-10T19:00:03.509Z,2.50
2022-08-10T19:02:41.421Z,2.70
2022-08-10T19:05:30.292Z,2.43
2022-08-10T19:08:30.345Z,2.67
2022-08-10T19:11:02.751Z,2.50
2022-08-10T19:13:33.084Z,2.60
2022-08-10T19:16:02.588Z,2.83
2022-08-10T19:18:32.385Z,2.57
2022-08-10T19:21:03.143Z,2.60
2022-08-10T19:23:36.845Z,2.67
2022-08-10T19:26:42.325Z,2.40
2022-08-10T19:29:08.196Z,2.33
2022-08-10T19:31:42.019Z,2.33
2022-08-10T19:34:24.451Z,2.10
2022-08-10T19:36:55.337Z,2.50
2022-08-10T19:39:25.825Z,2.83
2022-08-10T19:42:11.697Z,2.43
2022-08-10T19:44:43.208Z,2.37
2022-08-10T19:47:14.820Z,2.83
2022-08-10T19:49:44.878Z,2.17
2022-08-10T19:52:15.084Z,2.23
2022-08-10T19:54:46.683Z,2.90
2022-08-10T19:57:25.919Z,2.73
2022-08-10T20:00:16.680Z,2.70
2022-08-10T20:02:47.570Z,2.27
2022-08-10T20:05:20.621Z,2.30
2022-08-10T20:07:51.030Z,2.43
2022-08-10T20:10:21.180Z,2.50
2022-08-10T20:12:52.419Z,2.47
2022-08-10T20:15:25.629Z,2.53
2022-08-10T20:17:56.372Z,2.40
2022-08-10T20:20:30.480Z,2.50
2022-08-10T20:23:02.403Z,2.90
2022-08-10T20:25:30.623Z,2.17
2022-08-10T20:28:13.856Z,2.50
2022-08-10T20:30:44.238Z,2.33
2022-08-10T20:33:13.748Z,2.87
2022-08-10T20:35:47.424Z,2.30
2022-08-10T20:38:20.219Z,2.80
2022-08-10T20:40:48.800Z,2.40
2022-08-10T20:43:21.124Z,2.40
2022-08-10T20:46:07.561Z,2.40
2022-08-10T20:48:36.896Z,2.87
2022-08-10T20:51:06.026Z,2.60
2022-08-10T20:53:34.848Z,2.53
2022-08-10T20:56:08.963Z,2.87
2022-08-10T20:58:48.328Z,2.67
2022-08-10T21:01:17.314Z,2.80
2022-08-10T21:03:51.541Z,3.10
2022-08-10T21:06:41.720Z,2.07
2022-08-10T21:09:18.410Z,2.77
2022-08-10T21:11:53.502Z,2.40
2022-08-10T21:14:26.959Z,2.60
2022-08-10T21:17:02.606Z,2.67
2022-08-10T21:19:52.223Z,2.30
2022-08-10T21:22:23.817Z,3.10
2022-08-10T21:24:58.457Z,2.60
2022-08-10T21:27:34.246Z,2.57
2022-08-10T21:32:57.280Z,3.33
2022-08-10T21:35:36.922Z,2.50
2022-08-10T21:38:09.378Z,2.73
2022-08-10T21:40:41.045Z,2.77
2022-08-10T21:43:26.846Z,2.63
2022-08-10T21:46:14.442Z,2.33
2022-08-10T21:48:45.024Z,2.80
2022-08-10T21:52:01.922Z,2.70
2022-08-10T21:54:15.734Z,2.23
2022-08-10T21:56:47.578Z,2.00
2022-08-10T21:59:17.655Z,2.60
2022-08-10T22:01:51.467Z,2.67
2022-08-10T22:04:20.020Z,2.87
2022-08-10T22:06:52.221Z,3.00
2022-08-10T22:09:22.039Z,3.10
2022-08-10T22:11:51.750Z,2.77
2022-08-10T22:14:25.652Z,2.50
2022-08-10T22:16:56.618Z,2.77
2022-08-10T22:19:31.382Z,2.50
2022-08-10T22:22:02.858Z,2.70
2022-08-10T22:24:37.274Z,2.63
2022-08-10T22:27:11.894Z,2.90
2022-08-10T22:29:59.932Z,2.47
2022-08-10T22:31:24.822Z,2.87
2022-08-10T22:32:32.807Z,2.40
2022-08-10T22:35:10.938Z,2.80
2022-08-10T22:37:41.988Z,2.40
2022-08-10T22:40:13.812Z,2.30
2022-08-10T22:42:58.384Z,3.30
2022-08-10T22:45:29.129Z,2.27
2022-08-10T22:48:00.148Z,3.40
2022-08-10T22:50:28.410Z,2.80
2022-08-10T22:53:03.180Z,2.90
2022-08-10T22:55:33.629Z,2.83
2022-08-10T22:58:00.808Z,3.00
2022-08-10T23:00:29.463Z,2.67
2022-08-10T23:03:03.086Z,3.10
2022-08-10T23:05:32.078Z,2.47
2022-08-10T23:08:05.785Z,3.03
2022-08-10T23:10:36.182Z,2.23
2022-08-10T23:13:06.069Z,2.93
2022-08-10T23:15:35.965Z,2.60
2022-08-10T23:18:05.068Z,2.83
2022-08-10T23:20:35.023Z,3.03
2022-08-10T23:23:09.051Z,2.80
2022-08-10T23:25:43.676Z,2.70
2022-08-10T23:28:38.343Z,2.73
2022-08-10T23:31:12.722Z,2.80
2022-08-10T23:33:41.644Z,3.00
2022-08-10T23:36:34.058Z,3.10
2022-08-10T23:39:25.565Z,3.00
2022-08-10T23:41:46.714Z,2.30
2022-08-10T23:44:21.164Z,2.80
2022-08-10T23:46:49.708Z,2.90
2022-08-10T23:49:19.573Z,2.67
2022-08-10T23:51:55.733Z,2.63
2022-08-10T23:54:24.610Z,3.00
2022-08-10T23:56:54.826Z,3.33
2022-08-10T23:59:23.227Z,2.80
